Cercs-Sant Jordi





Hora UTC 06:30
Temperatura 18.0 ºC
Humitat 75.7 %
Pressió 1022.1 hPa
Pluja 0.0 mm
Velocitat vent 3.1 km/h
Direcció vent S
Radiació solar 280.8 W/m²

Dades diàries 2022-07-07



Hora UTC (hivern +1h; estiu +2h)
Temperatura (ºC) Humitat (%) Pressió (hPa) Velocitat vent (km/h) Precipitació (mm) Radiació solar (W/m²)
Hora UTC Aire Humitat Pressió Vel. Dir. Vel. Max Dir. Intent. màx 5 min. Rad. Sol.
00:05 16.8 92.3 1022.1 0.0 NNE 0.0 W 0.0 0.1
00:10 16.5 91.5 1022.2 1.5 SSW 6.1 S 0.0 0.1
00:15 16.4 91.9 1022.2 1.7 WSW 6.1 SW 0.0 0.1
00:20 16.5 92.4 1022.2 3.4 W 6.1 WNW 0.0 0.1
00:25 16.6 92.5 1022.2 2.1 W 6.1 W 0.0 0.1
00:30 16.3 91.7 1022.2 3.5 SSW 8.8 SW 0.0 0.1
00:35 16.0 92.8 1022.1 0.8 SW 3.4 SW 0.0 0.1
00:40 16.1 93.5 1022.1 0.0 NNE 0.0 SW 0.0 0.1
00:45 15.9 93.2 1022.1 0.1 W 3.4 W 0.0 0.1
00:50 15.8 93.7 1022.1 0.0 NNE 0.0 SSW 0.0 0.1
00:55 15.9 94.4 1022.1 0.0 NNE 0.0 S 0.0 0.1
01:00 16.1 94.8 1022.1 0.0 NNE 0.0 S 0.0 0.1
01:05 15.9 93.7 1022.1 1.2 SSW 6.1 SSW 0.0 0.1
01:10 15.7 93.4 1022.1 0.3 SW 3.4 SSW 0.0 0.1
01:15 15.9 94.1 1022.1 0.0 NNE 0.0 W 0.0 0.1
01:20 15.9 93.6 1022.1 2.1 SSW 8.8 SSW 0.0 0.1
01:25 15.6 93.2 1022.1 2.8 WSW 6.1 WSW 0.0 0.1
01:30 15.7 93.4 1022.1 0.2 NNW 3.4 N 0.0 0.1
01:35 15.8 94.1 1022.0 0.8 WNW 6.1 NW 0.0 0.1
01:40 15.7 93.6 1022.0 0.6 S 6.1 S 0.0 0.1
01:45 15.7 93.7 1022.0 0.0 NNE 0.0 SSE 0.0 0.1
01:50 15.7 93.8 1021.9 0.0 NNE 0.0 SSE 0.0 0.1
01:55 15.7 93.9 1021.9 0.4 NE 6.1 NE 0.0 0.1
02:00 15.9 94.1 1021.8 2.2 ENE 6.1 ENE 0.0 0.1
02:05 15.8 93.6 1021.8 0.0 WSW 3.4 WSW 0.0 0.1
02:10 15.6 93.8 1021.8 0.5 SSW 3.4 WSW 0.0 0.1
02:15 15.6 94.1 1021.8 0.3 NW 3.4 NW 0.0 0.1
02:20 15.7 94.1 1021.8 0.1 WNW 3.4 WNW 0.0 0.1
02:25 15.7 93.7 1021.8 0.0 NNE 0.0 S 0.0 0.1
02:30 15.5 93.2 1021.8 0.0 NNE 0.0 SSW 0.0 0.1
02:35 15.5 93.4 1021.7 0.1 NE 3.4 NE 0.0 0.1
02:40 15.7 93.3 1021.7 1.0 NE 6.1 ENE 0.0 0.1
02:45 15.7 92.0 1021.7 0.4 NW 6.1 W 0.0 0.1
02:50 15.5 91.8 1021.6 0.0 NNE 0.0 WSW 0.0 0.1
02:55 15.4 92.4 1021.7 0.5 NNE 8.8 NNE 0.0 0.1
03:00 15.4 91.5 1021.7 1.2 SSW 6.1 ESE 0.0 0.1
03:05 15.4 91.4 1021.7 0.3 WSW 3.4 SW 0.0 0.1
03:10 15.4 91.4 1021.7 0.1 NE 3.4 NE 0.0 0.1
03:15 15.5 90.6 1021.6 0.2 NNE 3.4 NNE 0.0 0.1
03:20 15.6 89.6 1021.6 1.0 SSE 6.1 ESE 0.0 0.1
03:25 15.4 90.2 1021.6 0.1 S 3.4 S 0.0 0.1
03:30 15.3 90.9 1021.6 0.0 NNE 0.0 SSW 0.0 0.1
03:35 15.3 90.3 1021.6 1.7 WNW 8.8 NW 0.0 0.1
03:40 15.2 90.2 1021.7 0.3 SE 3.4 ESE 0.0 0.1
03:45 15.2 90.0 1021.7 2.1 NW 8.8 NNE 0.0 0.1
03:50 15.4 88.6 1021.6 2.1 WNW 11.5 WNW 0.0 0.1
03:55 15.7 86.4 1021.7 5.8 WNW 16.9 NNW 0.0 0.2
04:00 15.8 85.7 1021.6 2.6 WSW 6.1 WNW 0.0 0.2
04:05 15.7 86.6 1021.7 0.6 NW 3.4 WNW 0.0 0.5
04:10 15.7 86.5 1021.7 0.2 ESE 6.1 SSE 0.0 1.0
04:15 15.5 86.5 1021.7 0.9 S 3.4 SSE 0.0 2.5
04:20 15.4 87.0 1021.7 0.1 SSE 3.4 SSE 0.0 3.7
04:25 15.5 86.4 1021.7 1.4 SSE 6.1 SSE 0.0 4.8
04:30 15.4 86.4 1021.8 0.7 SSW 6.1 SW 0.0 5.2
04:35 15.3 86.7 1021.8 1.2 NNE 6.1 NNE 0.0 6.1
04:40 15.6 84.5 1021.7 0.0 NNE 0.0 NNE 0.0 7.7
04:45 15.6 84.6 1021.8 1.6 NNE 8.8 NE 0.0 10.7
04:50 15.5 84.5 1021.8 0.3 NW 3.4 NNE 0.0 14.3
04:55 15.2 86.4 1021.8 1.9 SW 6.1 SSW 0.0 17.7
05:00 15.1 87.2 1021.9 0.1 W 3.4 W 0.0 20.8
05:05 15.2 86.8 1021.9 0.0 NNE 0.0 WSW 0.0 23.2
05:10 15.2 85.7 1021.9 0.0 NNE 0.0 WSW 0.0 26.1
05:15 15.5 84.0 1021.9 0.2 SE 3.4 NE 0.0 29.2
05:20 15.6 84.7 1021.9 0.0 WSW 3.4 W 0.0 29.8
05:25 15.4 85.6 1021.9 0.1 SW 3.4 SW 0.0 34.3
05:30 15.6 84.1 1021.9 1.7 NNE 8.8 NE 0.0 109.4
05:35 16.3 80.7 1022.0 0.7 WSW 3.4 W 0.0 133.6
05:40 17.0 77.7 1022.0 0.5 S 6.1 SSE 0.0 147.7
05:45 17.5 76.6 1022.0 0.3 SSW 3.4 SSW 0.0 161.0
05:50 18.1 74.7 1022.0 0.7 NE 6.1 NE 0.0 172.6
05:55 18.2 73.6 1022.0 1.2 NNE 6.1 NNE 0.0 170.6
06:00 18.2 72.1 1022.0 3.1 NE 8.8 ENE 0.0 184.1
06:05 18.0 73.9 1022.1 2.6 S 6.1 NNE 0.0 202.2
06:10 17.6 76.3 1022.1 1.8 S 6.1 S 0.0 221.8
06:15 18.0 74.9 1022.1 0.3 NE 3.4 NNE 0.0 223.6
06:20 17.9 74.5 1022.1 2.4 NE 6.1 N 0.0 196.0
06:25 18.1 74.7 1022.1 1.5 S 6.1 SSW 0.0 263.8
06:30 18.0 75.7 1022.1 3.1 S 6.1 S 0.0 280.8
Màxima 18.3 94.8 1022.2 5.8 WNW 16.9 NNW 0.0 280.8
Mínima 15.0 72.1 1021.6
Total 0.0